Time;durP1;ratioP1;P1;durP2;ratioP2;P2;SDS_P1;SDS_P2;PMS_P1;PMS_P2;Temp;Humidity;BMP_temperature;BMP_pressure;BME280_temperature;BME280_humidity;BME280_pressure;Samples;Min_cycle;Max_cycle;Signal;HPM_P1;HPM_P2
2021/03/20 00:00:45;;;;;;;10.90;4.25;;;3.80;95.90;;;;;;1887211;74;21147;-71
2021/03/20 00:03:12;;;;;;;7.55;3.52;;;3.80;96.10;;;;;;1888409;74;21562;-71
2021/03/20 00:05:40;;;;;;;11.93;3.85;;;3.80;96.00;;;;;;1883881;74;21274;-72
2021/03/20 00:08:10;;;;;;;7.50;3.62;;;3.80;96.60;;;;;;1886762;74;21625;-71
2021/03/20 00:10:39;;;;;;;10.98;4.03;;;3.70;96.50;;;;;;1883410;75;21101;-72
2021/03/20 00:13:07;;;;;;;5.40;3.30;;;3.60;96.40;;;;;;1884262;75;21574;-72
2021/03/20 00:15:35;;;;;;;8.80;3.80;;;3.60;96.80;;;;;;1888472;73;21803;-72
2021/03/20 00:18:03;;;;;;;7.22;3.33;;;3.70;96.80;;;;;;1883804;74;21093;-72
2021/03/20 00:20:33;;;;;;;6.35;3.35;;;3.70;97.00;;;;;;1887393;74;21140;-71
2021/03/20 00:23:01;;;;;;;8.05;3.60;;;3.80;96.90;;;;;;1884319;74;21460;-73
2021/03/20 00:25:29;;;;;;;6.42;3.47;;;3.80;96.70;;;;;;1887656;74;21602;-73
2021/03/20 00:27:57;;;;;;;6.87;3.10;;;3.80;96.50;;;;;;1887351;74;21464;-73
2021/03/20 00:30:25;;;;;;;7.72;3.20;;;3.80;96.30;;;;;;1887704;74;21029;-73
2021/03/20 00:32:53;;;;;;;10.58;3.52;;;3.80;96.90;;;;;;1887552;74;21103;-72
2021/03/20 00:35:23;;;;;;;8.05;3.40;;;3.70;97.60;;;;;;1884708;74;21136;-71
2021/03/20 00:37:53;;;;;;;8.78;3.80;;;3.80;97.20;;;;;;1886670;74;21562;-72
2021/03/20 00:40:23;;;;;;;7.72;3.45;;;3.80;97.50;;;;;;1888196;74;21133;-71
2021/03/20 00:42:51;;;;;;;7.62;3.17;;;3.70;98.00;;;;;;1886419;74;21053;-71
2021/03/20 00:45:20;;;;;;;7.30;3.08;;;3.70;97.80;;;;;;1887360;74;21524;-71
2021/03/20 00:47:47;;;;;;;7.33;3.37;;;3.80;98.00;;;;;;1887693;74;21037;-71
2021/03/20 00:50:18;;;;;;;5.72;3.35;;;3.70;98.00;;;;;;1888776;74;21073;-71
2021/03/20 00:52:45;;;;;;;6.45;3.45;;;3.80;97.50;;;;;;1889905;74;21071;-71
2021/03/20 00:55:13;;;;;;;5.28;3.02;;;3.70;97.40;;;;;;1884061;74;21084;-70
2021/03/20 00:57:41;;;;;;;8.88;3.75;;;3.70;97.70;;;;;;1886365;74;21171;-73
2021/03/20 01:00:18;;;;;;;6.95;3.40;;;3.70;97.80;;;;;;1884695;74;21582;-72
2021/03/20 01:02:46;;;;;;;6.58;3.70;;;3.70;97.50;;;;;;1889831;74;21739;-72
2021/03/20 01:05:15;;;;;;;5.83;3.52;;;3.70;97.60;;;;;;1882630;74;21286;-72
2021/03/20 01:07:42;;;;;;;6.75;3.60;;;3.70;97.80;;;;;;1885576;74;21511;-71
2021/03/20 01:10:16;;;;;;;7.28;3.65;;;3.70;97.80;;;;;;1882886;74;21488;-72
2021/03/20 01:12:43;;;;;;;8.55;3.45;;;3.70;97.70;;;;;;1890956;74;21089;-72
2021/03/20 01:15:13;;;;;;;6.53;3.45;;;3.70;97.50;;;;;;1884226;73;21089;-73
2021/03/20 01:17:40;;;;;;;8.93;3.33;;;3.60;97.80;;;;;;1885682;74;21158;-73
2021/03/20 01:20:09;;;;;;;5.42;3.05;;;3.60;98.00;;;;;;1878868;74;21100;-72
2021/03/20 01:22:37;;;;;;;6.70;3.37;;;3.60;97.70;;;;;;1888496;74;21155;-72
2021/03/20 01:25:07;;;;;;;10.78;3.37;;;3.60;97.80;;;;;;1887438;74;21634;-72
2021/03/20 01:27:35;;;;;;;6.65;3.05;;;3.50;97.80;;;;;;1885895;74;21108;-72
2021/03/20 01:30:08;;;;;;;6.40;3.35;;;3.50;98.10;;;;;;1883800;74;21162;-73
2021/03/20 01:32:35;;;;;;;8.40;3.27;;;3.40;98.20;;;;;;1884008;74;21149;-72
2021/03/20 01:35:03;;;;;;;8.33;3.08;;;3.40;98.00;;;;;;1889606;74;21695;-73
2021/03/20 01:37:31;;;;;;;5.90;3.37;;;3.30;98.20;;;;;;1887643;74;21136;-72
2021/03/20 01:39:58;;;;;;;8.73;3.62;;;3.30;98.20;;;;;;1885437;74;21174;-72
2021/03/20 01:42:26;;;;;;;10.23;3.50;;;3.30;98.10;;;;;;1881202;74;21547;-72
2021/03/20 01:45:21;;;;;;;7.78;3.05;;;3.40;98.00;;;;;;1881558;74;21563;-72
2021/03/20 01:48:00;;;;;;;9.63;3.22;;;3.30;98.10;;;;;;1887066;74;21100;-73
2021/03/20 01:50:52;;;;;;;7.22;3.65;;;3.30;98.80;;;;;;1879832;74;21135;-73
2021/03/20 01:53:31;;;;;;;6.03;2.80;;;3.30;98.40;;;;;;1884368;74;21533;-72
2021/03/20 01:55:59;;;;;;;6.33;3.35;;;3.30;98.30;;;;;;1873112;75;21136;-72
2021/03/20 01:58:29;;;;;;;8.25;3.35;;;3.20;98.30;;;;;;1883879;74;21736;-71
2021/03/20 02:01:08;;;;;;;8.83;3.55;;;3.20;98.70;;;;;;1891026;74;21133;-71
2021/03/20 02:03:36;;;;;;;6.55;3.77;;;3.00;99.20;;;;;;1880525;74;21152;-71
2021/03/20 02:06:06;;;;;;;5.90;3.20;;;2.90;99.30;;;;;;1882290;74;21632;-71
2021/03/20 02:08:35;;;;;;;9.68;3.72;;;3.00;99.20;;;;;;1886514;74;21136;-71
2021/03/20 02:11:11;;;;;;;6.67;3.37;;;2.90;99.10;;;;;;1883283;74;21511;-73
2021/03/20 02:13:46;;;;;;;9.70;4.10;;;3.00;99.10;;;;;;1884629;74;21650;-71
2021/03/20 02:16:19;;;;;;;12.45;4.10;;;3.00;99.30;;;;;;1889891;74;21339;-72
2021/03/20 02:18:56;;;;;;;8.60;3.80;;;2.90;99.50;;;;;;1882497;74;21103;-71
2021/03/20 02:21:32;;;;;;;10.98;3.45;;;2.90;99.50;;;;;;1883558;74;20990;-72
2021/03/20 02:24:05;;;;;;;8.40;3.87;;;3.00;99.40;;;;;;1888582;74;21115;-71
2021/03/20 02:26:57;;;;;;;7.97;3.60;;;3.00;99.30;;;;;;1886779;74;21553;-71
2021/03/20 02:29:50;;;;;;;8.27;4.00;;;3.00;99.40;;;;;;1890639;74;21523;-71
2021/03/20 02:32:55;;;;;;;9.60;3.75;;;2.90;99.70;;;;;;1885243;74;21107;-71
2021/03/20 02:35:38;;;;;;;4.92;3.40;;;2.90;99.80;;;;;;1886699;74;21092;-71
2021/03/20 02:38:14;;;;;;;10.00;4.00;;;2.90;99.80;;;;;;1886484;74;21226;-72
2021/03/20 02:40:44;;;;;;;6.50;3.27;;;2.90;99.90;;;;;;1883216;74;21596;-72
2021/03/20 02:43:23;;;;;;;7.40;3.95;;;2.90;99.80;;;;;;1887602;74;21194;-71
2021/03/20 02:46:06;;;;;;;8.50;3.60;;;2.90;99.70;;;;;;1882885;74;21238;-71
2021/03/20 02:48:39;;;;;;;5.70;3.60;;;2.80;99.30;;;;;;1886792;74;21145;-71
2021/03/20 02:51:13;;;;;;;8.68;3.98;;;2.80;99.50;;;;;;1886006;74;21164;-71
2021/03/20 02:53:46;;;;;;;8.33;3.58;;;2.80;99.90;;;;;;1885860;73;21105;-71
2021/03/20 02:56:20;;;;;;;5.50;3.12;;;2.80;99.90;;;;;;1882863;73;21136;-71
2021/03/20 02:58:50;;;;;;;7.85;3.75;;;2.70;99.90;;;;;;1885590;74;21033;-71
2021/03/20 03:01:21;;;;;;;10.08;4.30;;;2.70;99.90;;;;;;1887185;74;21562;-71
2021/03/20 03:03:50;;;;;;;6.78;3.55;;;2.70;99.90;;;;;;1890767;74;21175;-71
2021/03/20 03:06:33;;;;;;;7.95;3.98;;;2.70;99.90;;;;;;1881907;74;21146;-71
2021/03/20 03:09:01;;;;;;;;;;;2.80;99.90;;;;;;1856950;76;21122;-72
2021/03/20 03:11:46;;;;;;;5.37;3.45;;;2.70;99.80;;;;;;1899371;74;20187;-72
2021/03/20 03:14:19;;;;;;;10.05;3.60;;;2.60;99.90;;;;;;1831176;77;21105;-72
2021/03/20 03:16:50;;;;;;;12.05;4.17;;;2.60;99.90;;;;;;1906754;73;21247;-72
2021/03/20 03:19:26;;;;;;;8.78;3.90;;;2.60;99.90;;;;;;1901019;74;21501;-72
2021/03/20 03:21:57;;;;;;;6.67;3.40;;;2.60;99.90;;;;;;1911813;74;21081;-72
2021/03/20 03:24:27;;;;;;;7.50;3.92;;;2.60;99.90;;;;;;1907407;74;21624;-72
2021/03/20 03:26:57;;;;;;;10.35;4.33;;;2.60;99.90;;;;;;1910930;73;21240;-71
2021/03/20 03:29:31;;;;;;;8.93;4.08;;;2.70;99.90;;;;;;1906786;74;21084;-71
2021/03/20 03:32:33;;;;;;;8.68;3.90;;;2.70;99.90;;;;;;1909203;74;21163;-71
2021/03/20 03:35:07;;;;;;;8.75;3.90;;;2.60;99.90;;;;;;1904919;74;21176;-73
2021/03/20 03:37:43;;;;;;;9.40;3.50;;;2.50;99.90;;;;;;1907909;74;21119;-72
2021/03/20 03:40:16;;;;;;;7.30;3.70;;;2.60;99.90;;;;;;1907002;74;21199;-71
2021/03/20 03:42:45;;;;;;;7.90;3.60;;;2.60;99.90;;;;;;1905397;74;21614;-71
2021/03/20 03:45:13;;;;;;;7.08;3.77;;;2.50;99.90;;;;;;1910373;73;21112;-71
2021/03/20 03:47:42;;;;;;;9.38;4.10;;;2.40;99.90;;;;;;1908621;74;21062;-71
2021/03/20 03:50:25;;;;;;;6.87;3.72;;;2.50;99.90;;;;;;1911678;74;21137;-71
2021/03/20 03:52:52;;;;;;;;;;;2.50;99.90;;;;;;1913169;74;21083;-72
2021/03/20 03:55:20;;;;;;;6.92;3.27;;;2.60;99.90;;;;;;1907967;73;20121;-72
2021/03/20 03:58:20;;;;;;;8.73;4.10;;;2.60;99.90;;;;;;1909240;74;21110;-72
2021/03/20 04:00:53;;;;;;;9.95;3.95;;;2.60;99.90;;;;;;1861333;74;21540;-71
2021/03/20 04:03:29;;;;;;;8.43;3.72;;;2.50;99.90;;;;;;1913577;74;21600;-71
2021/03/20 04:06:12;;;;;;;7.95;4.00;;;2.50;99.90;;;;;;1909659;73;21128;-71
2021/03/20 04:08:48;;;;;;;8.00;4.05;;;2.60;99.90;;;;;;1909778;74;21132;-72
2021/03/20 04:11:33;;;;;;;8.83;3.67;;;2.50;99.90;;;;;;1905693;74;21020;-71
2021/03/20 04:14:07;;;;;;;9.58;3.67;;;2.50;99.90;;;;;;1910541;74;21070;-71
2021/03/20 04:16:59;;;;;;;7.05;3.50;;;2.40;99.90;;;;;;1909389;73;21101;-71
2021/03/20 04:20:04;;;;;;;8.05;4.33;;;2.50;99.90;;;;;;1908959;74;21156;-71
2021/03/20 04:22:53;;;;;;;6.33;3.62;;;2.50;99.90;;;;;;1899431;74;21111;-73
2021/03/20 04:25:26;;;;;;;7.45;3.70;;;2.50;99.90;;;;;;1909286;73;21118;-72
2021/03/20 04:28:26;;;;;;;8.40;3.95;;;2.60;99.90;;;;;;1906553;74;21058;-70
2021/03/20 04:31:02;;;;;;;9.78;3.75;;;2.60;99.90;;;;;;1908815;74;21150;-71
2021/03/20 04:33:33;;;;;;;7.00;4.00;;;2.60;99.90;;;;;;1907041;74;21153;-72
2021/03/20 04:36:09;;;;;;;10.32;3.75;;;2.60;99.90;;;;;;1914423;73;21099;-72
2021/03/20 04:38:37;;;;;;;7.25;3.42;;;2.60;99.90;;;;;;1909761;74;21249;-72
2021/03/20 04:41:08;;;;;;;10.82;3.80;;;2.70;99.90;;;;;;1912379;74;21135;-73
2021/03/20 04:43:39;;;;;;;9.23;3.55;;;2.80;99.90;;;;;;1908136;74;21219;-72
2021/03/20 04:46:15;;;;;;;12.15;3.75;;;2.80;99.90;;;;;;1911997;73;21216;-72
2021/03/20 04:48:45;;;;;;;8.10;3.62;;;2.80;99.90;;;;;;1914473;74;21097;-71
2021/03/20 04:51:28;;;;;;;9.83;3.50;;;2.80;99.90;;;;;;1909058;74;21135;-71
2021/03/20 04:53:58;;;;;;;7.35;3.60;;;2.90;99.90;;;;;;1906502;74;21079;-71
2021/03/20 04:56:26;;;;;;;6.53;3.47;;;2.90;99.90;;;;;;1905270;73;21661;-71
2021/03/20 04:58:59;;;;;;;5.70;2.85;;;3.00;99.90;;;;;;1908676;74;21206;-73
2021/03/20 05:01:45;;;;;;;4.67;2.92;;;3.00;99.90;;;;;;1911377;74;21149;-72
2021/03/20 05:04:28;;;;;;;6.92;2.85;;;3.10;99.90;;;;;;1907573;74;21047;-71
2021/03/20 05:06:58;;;;;;;7.37;2.85;;;3.20;99.60;;;;;;1937524;72;21283;-73
2021/03/20 05:09:28;;;;;;;6.92;2.87;;;3.20;99.70;;;;;;1946203;72;21079;-72
2021/03/20 05:12:07;;;;;;;6.70;2.60;;;3.30;99.30;;;;;;1951488;72;21129;-71
2021/03/20 05:14:40;;;;;;;8.63;3.35;;;3.30;99.00;;;;;;1946073;72;21556;-71
2021/03/20 05:17:13;;;;;;;5.65;2.62;;;3.30;99.20;;;;;;1954399;72;21592;-72
2021/03/20 05:19:41;;;;;;;10.10;2.75;;;3.30;99.00;;;;;;1945615;72;21549;-72
2021/03/20 05:22:10;;;;;;;7.12;3.02;;;3.40;99.10;;;;;;1954084;72;21030;-72
2021/03/20 05:24:39;;;;;;;7.78;2.90;;;3.40;98.50;;;;;;1950217;72;21027;-71
2021/03/20 05:27:09;;;;;;;5.62;2.83;;;3.50;98.20;;;;;;1954789;72;21535;-71
2021/03/20 05:29:37;;;;;;;7.42;2.95;;;3.50;97.90;;;;;;1895501;74;21463;-72
2021/03/20 05:32:06;;;;;;;9.73;2.58;;;3.60;97.90;;;;;;1944489;73;21087;-72
2021/03/20 05:34:39;;;;;;;5.85;2.58;;;3.50;97.60;;;;;;1949032;73;21024;-72
2021/03/20 05:37:08;;;;;;;8.65;2.77;;;3.60;97.70;;;;;;1942996;72;21241;-72
2021/03/20 05:39:35;;;;;;;8.00;2.60;;;3.70;97.50;;;;;;1947137;73;21498;-72
2021/03/20 05:42:18;;;;;;;10.20;2.70;;;3.70;97.00;;;;;;1943046;73;21090;-72
2021/03/20 05:45:07;;;;;;;5.50;2.40;;;3.60;96.50;;;;;;1948063;72;21078;-70
2021/03/20 05:48:10;;;;;;;6.75;2.50;;;3.50;96.80;;;;;;1946328;73;21135;-72
2021/03/20 05:50:49;;;;;;;6.03;1.95;;;3.40;96.70;;;;;;1938377;73;21083;-71
2021/03/20 05:53:41;;;;;;;5.90;2.77;;;3.50;97.00;;;;;;1949078;73;21624;-72
2021/03/20 05:56:41;;;;;;;8.43;3.05;;;3.50;96.80;;;;;;1940558;72;21172;-72
2021/03/20 05:59:21;;;;;;;5.22;2.22;;;3.60;96.50;;;;;;1944417;73;21024;-71
2021/03/20 06:02:08;;;;;;;7.85;2.30;;;3.60;96.60;;;;;;1940333;73;21533;-71
2021/03/20 06:04:48;;;;;;;14.13;2.60;;;3.60;96.80;;;;;;1891791;73;21212;-71
2021/03/20 06:07:34;;;;;;;5.37;2.47;;;3.70;96.40;;;;;;1930970;73;21136;-71
2021/03/20 06:10:22;;;;;;;8.20;2.42;;;3.80;96.20;;;;;;1945533;72;21711;-71
2021/03/20 06:13:01;;;;;;;5.47;1.85;;;3.80;96.50;;;;;;1949398;72;21080;-70
2021/03/20 06:15:50;;;;;;;11.48;2.75;;;3.90;96.20;;;;;;1948674;72;21027;-72
2021/03/20 06:18:41;;;;;;;5.20;1.95;;;3.90;96.00;;;;;;1950081;72;21063;-71
2021/03/20 06:21:28;;;;;;;3.90;2.10;;;4.00;95.70;;;;;;1949977;72;21111;-70
2021/03/20 06:24:15;;;;;;;5.80;2.27;;;4.00;95.80;;;;;;1944891;72;21134;-71
2021/03/20 06:26:46;;;;;;;5.60;2.30;;;4.00;95.30;;;;;;1955062;72;21102;-72
2021/03/20 06:29:23;;;;;;;5.80;2.22;;;4.00;95.40;;;;;;1928275;73;21219;-72
2021/03/20 06:31:56;;;;;;;5.78;2.05;;;4.00;95.10;;;;;;1942027;73;21824;-71
2021/03/20 06:34:45;;;;;;;5.45;2.27;;;3.90;95.20;;;;;;1946525;73;21121;-72
2021/03/20 06:37:15;;;;;;;4.92;2.22;;;3.90;94.80;;;;;;1935041;72;21168;-71
2021/03/20 06:40:01;;;;;;;5.72;2.10;;;3.90;95.20;;;;;;1948246;72;21094;-72
2021/03/20 06:42:32;;;;;;;5.53;2.20;;;3.90;94.90;;;;;;1947375;72;21634;-71
2021/03/20 06:45:08;;;;;;;6.35;2.25;;;3.90;95.10;;;;;;1951351;72;21078;-70
2021/03/20 06:47:38;;;;;;;4.53;2.20;;;4.00;95.20;;;;;;1948590;72;21106;-73
2021/03/20 06:50:18;;;;;;;4.12;2.02;;;4.10;95.30;;;;;;1954417;72;21855;-72
2021/03/20 06:52:49;;;;;;;8.60;2.35;;;4.00;94.40;;;;;;1955437;72;21144;-71
2021/03/20 06:55:31;;;;;;;13.43;2.25;;;3.90;94.90;;;;;;1952003;72;20999;-70
2021/03/20 06:58:01;;;;;;;7.00;2.00;;;4.00;94.70;;;;;;1951234;72;21071;-70
2021/03/20 07:00:34;;;;;;;7.22;2.70;;;4.20;94.90;;;;;;1954880;72;21079;-70
2021/03/20 07:03:08;;;;;;;5.58;2.62;;;4.20;94.50;;;;;;1945248;72;21187;-70
2021/03/20 07:05:54;;;;;;;6.67;1.98;;;4.20;95.10;;;;;;1950093;72;21094;-71
2021/03/20 07:08:39;;;;;;;6.17;2.30;;;4.40;95.20;;;;;;1956232;72;21192;-70
2021/03/20 07:11:09;;;;;;;7.85;2.20;;;4.40;94.60;;;;;;1954216;72;21549;-69
2021/03/20 07:13:49;;;;;;;7.58;2.83;;;4.30;94.40;;;;;;1943303;72;21116;-69
2021/03/20 07:16:19;;;;;;;5.17;2.50;;;4.30;94.40;;;;;;1951389;72;21079;-69
2021/03/20 07:18:59;;;;;;;7.67;2.17;;;4.10;94.20;;;;;;1954206;72;21011;-69
2021/03/20 07:21:35;;;;;;;5.60;2.12;;;4.20;94.60;;;;;;1954999;72;21015;-69
2021/03/20 07:24:17;;;;;;;5.30;2.58;;;4.30;94.90;;;;;;1929611;73;21104;-69
2021/03/20 07:27:09;;;;;;;6.85;2.20;;;4.40;94.50;;;;;;1946946;72;21153;-69
2021/03/20 07:29:54;;;;;;;6.97;2.33;;;4.60;94.50;;;;;;1937550;72;21144;-69
2021/03/20 07:32:31;;;;;;;7.78;3.05;;;4.50;94.20;;;;;;1949490;72;21517;-69
2021/03/20 07:35:16;;;;;;;5.35;2.37;;;4.50;94.20;;;;;;1950550;72;21161;-69
2021/03/20 07:37:44;;;;;;;5.95;2.52;;;4.50;94.30;;;;;;1953268;72;21217;-69
2021/03/20 07:40:20;;;;;;;10.40;3.02;;;4.50;94.30;;;;;;1961633;72;21150;-70
2021/03/20 07:42:47;;;;;;;5.37;2.33;;;4.50;94.00;;;;;;1942950;72;21624;-70
2021/03/20 07:45:21;;;;;;;5.35;2.02;;;4.50;93.80;;;;;;1945725;73;21239;-69
2021/03/20 07:47:57;;;;;;;5.97;2.30;;;4.40;93.50;;;;;;1943487;73;21200;-71
2021/03/20 07:50:28;;;;;;;5.72;2.33;;;4.40;93.40;;;;;;1940317;73;21057;-69
2021/03/20 07:53:08;;;;;;;6.80;1.90;;;4.50;93.40;;;;;;1945796;73;21596;-69
2021/03/20 07:55:51;;;;;;;7.37;1.90;;;4.50;92.70;;;;;;1938285;73;21167;-69
2021/03/20 07:58:42;;;;;;;5.50;2.17;;;4.50;92.90;;;;;;1887268;73;21077;-69
2021/03/20 08:01:15;;;;;;;5.10;2.08;;;4.50;93.00;;;;;;1950219;73;21191;-68
2021/03/20 08:03:55;;;;;;;5.05;1.80;;;4.40;93.00;;;;;;1935093;73;21705;-72
2021/03/20 08:06:26;;;;;;;7.72;2.30;;;4.50;93.10;;;;;;1941051;72;21169;-69
2021/03/20 08:09:13;;;;;;;5.95;1.95;;;4.50;93.20;;;;;;1942782;72;21600;-69
2021/03/20 08:11:41;;;;;;;5.60;1.92;;;4.70;93.50;;;;;;1945337;73;21094;-69
2021/03/20 08:14:45;;;;;;;7.45;2.25;;;4.90;93.30;;;;;;1947737;72;21071;-76
2021/03/20 08:17:17;;;;;;;6.45;2.40;;;4.90;92.70;;;;;;1943524;72;21655;-68
2021/03/20 08:19:46;;;;;;;8.85;2.42;;;4.90;92.90;;;;;;1945271;73;21123;-69
2021/03/20 08:22:26;;;;;;;7.67;2.37;;;4.80;92.60;;;;;;1947381;73;21106;-68
2021/03/20 08:25:16;;;;;;;6.10;2.00;;;4.80;93.00;;;;;;1943113;73;21141;-70
2021/03/20 08:27:56;;;;;;;7.90;2.55;;;4.80;92.50;;;;;;1945590;73;21115;-69
2021/03/20 08:30:42;;;;;;;5.97;2.02;;;4.70;92.70;;;;;;1938015;73;20993;-69
2021/03/20 08:33:29;;;;;;;8.08;2.65;;;4.70;92.70;;;;;;1932866;73;21132;-69
2021/03/20 08:36:28;;;;;;;5.47;1.92;;;4.80;92.40;;;;;;1942896;73;21135;-70
2021/03/20 08:39:24;;;;;;;7.12;2.30;;;4.80;92.40;;;;;;1941406;73;21093;-69
2021/03/20 08:41:55;;;;;;;8.53;2.20;;;4.80;92.40;;;;;;1945870;73;21363;-70
2021/03/20 08:44:53;;;;;;;6.83;2.02;;;4.70;92.00;;;;;;1940996;73;21130;-69
2021/03/20 08:47:57;;;;;;;4.40;1.82;;;4.80;92.30;;;;;;1934502;73;21611;-69
2021/03/20 08:50:37;;;;;;;4.35;2.05;;;4.80;92.20;;;;;;1943509;73;21110;-69
2021/03/20 08:53:10;;;;;;;6.08;2.33;;;4.90;93.20;;;;;;1934731;73;21106;-68
2021/03/20 08:55:53;;;;;;;6.40;2.27;;;5.20;92.70;;;;;;1942104;72;21160;-68
2021/03/20 08:58:23;;;;;;;3.60;1.80;;;5.40;92.90;;;;;;1939458;73;21051;-69
2021/03/20 09:00:57;;;;;;;4.87;2.33;;;5.60;92.70;;;;;;1942715;73;21099;-70
2021/03/20 09:03:42;;;;;;;7.33;2.35;;;5.70;92.40;;;;;;1941754;73;21024;-70
2021/03/20 09:06:12;;;;;;;9.03;2.60;;;5.80;92.80;;;;;;1937071;72;21149;-69
2021/03/20 09:08:43;;;;;;;5.28;2.00;;;5.90;92.10;;;;;;1938738;73;21020;-69
2021/03/20 09:11:24;;;;;;;4.08;2.00;;;6.00;92.70;;;;;;1940130;73;21012;-70
2021/03/20 09:14:12;;;;;;;6.97;2.42;;;6.00;91.80;;;;;;1937086;73;21027;-70
2021/03/20 09:16:48;;;;;;;6.55;2.20;;;5.90;91.40;;;;;;1942017;72;21611;-69
2021/03/20 09:19:22;;;;;;;4.85;2.17;;;5.80;91.50;;;;;;1942290;73;21102;-69
2021/03/20 09:21:51;;;;;;;6.33;2.25;;;5.90;91.70;;;;;;1940512;73;22119;-69
2021/03/20 09:24:25;;;;;;;4.67;2.10;;;6.00;90.80;;;;;;1941118;73;21095;-68
2021/03/20 09:26:56;;;;;;;9.08;2.60;;;5.90;91.20;;;;;;1943850;72;21150;-68
2021/03/20 09:29:30;;;;;;;4.12;1.87;;;6.00;91.20;;;;;;1939123;73;21150;-68
2021/03/20 09:32:00;;;;;;;4.65;2.10;;;6.00;90.50;;;;;;1940093;73;21699;-69
2021/03/20 09:34:34;;;;;;;5.35;2.15;;;6.00;90.20;;;;;;1947418;73;21083;-68
2021/03/20 09:37:04;;;;;;;4.10;1.95;;;6.00;90.40;;;;;;1940320;73;21565;-69
2021/03/20 09:39:44;;;;;;;4.35;2.17;;;6.00;89.40;;;;;;1931919;73;21047;-72
2021/03/20 09:42:26;;;;;;;4.47;2.25;;;6.10;90.70;;;;;;1943754;73;21177;-71
2021/03/20 09:45:07;;;;;;;3.52;1.82;;;6.20;90.20;;;;;;1943545;72;21201;-70
2021/03/20 09:47:37;;;;;;;5.97;2.37;;;6.00;89.90;;;;;;1940807;73;21658;-69
2021/03/20 09:50:09;;;;;;;8.70;2.87;;;6.00;90.20;;;;;;1940153;73;21067;-69
2021/03/20 09:52:41;;;;;;;;;;;6.20;90.00;;;;;;1938663;73;21236;-70
2021/03/20 09:55:32;;;;;;;13.83;2.62;;;6.40;90.00;;;;;;1941581;73;20409;-70
2021/03/20 09:58:02;;;;;;;4.75;2.10;;;6.50;87.90;;;;;;1867244;76;21237;-70
2021/03/20 10:00:51;;;;;;;8.98;3.20;;;6.50;85.40;;;;;;1919370;73;21113;-70
2021/03/20 10:03:38;;;;;;;3.65;2.10;;;6.60;86.90;;;;;;1936371;73;21044;-70
2021/03/20 10:06:14;;;;;;;6.53;2.75;;;6.50;84.80;;;;;;1943156;72;21164;-71
2021/03/20 10:08:48;;;;;;;4.28;2.35;;;6.30;86.50;;;;;;1941168;73;21189;-70
2021/03/20 10:11:36;;;;;;;5.58;2.60;;;6.30;86.30;;;;;;1942940;73;22189;-71
2021/03/20 10:14:23;;;;;;;4.92;2.30;;;6.50;87.40;;;;;;1944274;73;21577;-71
2021/03/20 10:17:10;;;;;;;4.40;1.87;;;6.50;85.40;;;;;;1942632;72;22024;-71
2021/03/20 10:19:44;;;;;;;7.78;2.52;;;6.60;85.70;;;;;;1941169;73;21090;-71
2021/03/20 10:22:26;;;;;;;4.50;2.10;;;6.70;87.80;;;;;;1939856;73;21107;-71
2021/03/20 10:24:56;;;;;;;5.22;2.30;;;6.80;86.40;;;;;;1944658;73;21383;-71
2021/03/20 10:27:38;;;;;;;6.53;2.70;;;6.90;85.00;;;;;;1942835;72;21111;-71
2021/03/20 10:30:15;;;;;;;4.72;2.15;;;6.80;84.70;;;;;;1938483;73;21050;-71
2021/03/20 10:33:02;;;;;;;7.12;2.75;;;6.80;84.90;;;;;;1940371;73;21070;-70
2021/03/20 10:35:32;;;;;;;4.78;2.45;;;6.80;85.10;;;;;;1939682;73;21121;-70
2021/03/20 10:38:24;;;;;;;5.60;2.75;;;6.90;85.80;;;;;;1944478;72;21010;-69
2021/03/20 10:41:02;;;;;;;7.78;2.58;;;6.80;86.60;;;;;;1939391;72;21020;-69
2021/03/20 10:43:33;;;;;;;8.95;3.60;;;6.90;87.50;;;;;;1944504;73;21019;-69
2021/03/20 10:46:00;;;;;;;4.87;2.80;;;7.00;87.50;;;;;;1948573;72;21133;-70
2021/03/20 10:48:29;;;;;;;6.50;3.05;;;6.90;87.60;;;;;;1943630;73;21555;-70
2021/03/20 10:50:59;;;;;;;6.15;2.80;;;6.90;87.40;;;;;;1940318;73;21643;-71
2021/03/20 10:53:35;;;;;;;5.20;3.10;;;6.90;87.60;;;;;;1942379;73;21012;-70
2021/03/20 10:56:03;;;;;;;7.83;3.22;;;6.80;88.10;;;;;;1944580;72;21124;-69
2021/03/20 10:58:36;;;;;;;7.62;3.47;;;6.70;89.00;;;;;;1949568;73;21562;-68
2021/03/20 11:01:04;;;;;;;10.98;3.67;;;6.70;89.60;;;;;;1941374;73;21022;-68
2021/03/20 11:03:37;;;;;;;7.25;3.92;;;6.90;90.10;;;;;;1943419;73;21602;-68
2021/03/20 11:06:17;;;;;;;7.72;3.47;;;7.10;90.00;;;;;;1938464;72;21671;-67
2021/03/20 11:08:51;;;;;;;6.22;3.62;;;7.20;90.10;;;;;;1879026;72;21129;-72
2021/03/20 11:11:34;;;;;;;7.40;3.72;;;7.10;90.60;;;;;;1869641;75;21093;-71
2021/03/20 11:14:14;;;;;;;9.03;3.50;;;7.10;91.40;;;;;;1871742;75;21129;-71
2021/03/20 11:16:44;;;;;;;7.35;3.87;;;7.10;90.50;;;;;;1871511;75;21085;-70
2021/03/20 11:19:27;;;;;;;7.72;3.83;;;7.20;90.50;;;;;;1869903;75;22169;-71
2021/03/20 11:22:01;;;;;;;9.63;4.87;;;7.30;90.70;;;;;;1871684;75;21163;-71
2021/03/20 11:24:35;;;;;;;6.58;4.40;;;7.30;90.70;;;;;;1872108;75;21134;-71
2021/03/20 11:27:29;;;;;;;6.55;4.22;;;7.50;91.00;;;;;;1870488;75;21192;-71
2021/03/20 11:30:03;;;;;;;8.38;4.12;;;7.50;90.90;;;;;;1872920;75;21094;-73
2021/03/20 11:32:36;;;;;;;6.65;4.50;;;7.70;91.70;;;;;;1873268;75;21098;-72
2021/03/20 11:35:24;;;;;;;8.73;4.97;;;8.10;91.50;;;;;;1871083;75;21046;-70
2021/03/20 11:37:52;;;;;;;7.35;4.92;;;7.90;91.90;;;;;;1873119;75;21074;-72
2021/03/20 11:40:29;;;;;;;7.40;4.55;;;7.60;92.40;;;;;;1873677;75;21097;-71
2021/03/20 11:42:59;;;;;;;6.83;4.58;;;7.80;92.80;;;;;;1874959;75;21244;-73
2021/03/20 11:45:33;;;;;;;6.00;4.45;;;8.00;93.20;;;;;;1873724;75;21558;-72
2021/03/20 11:48:04;;;;;;;9.98;5.30;;;8.20;92.80;;;;;;1869944;75;21165;-72
2021/03/20 11:50:34;;;;;;;8.45;4.85;;;8.30;92.60;;;;;;1857009;75;21164;-73
2021/03/20 11:53:14;;;;;;;7.25;4.90;;;8.40;92.70;;;;;;1875676;75;21023;-72
2021/03/20 11:55:43;;;;;;;9.33;5.05;;;8.60;93.60;;;;;;1856914;75;21500;-73
2021/03/20 11:58:22;;;;;;;9.15;4.90;;;8.70;94.00;;;;;;1873438;75;21109;-73
2021/03/20 12:00:50;;;;;;;6.87;5.30;;;8.90;92.80;;;;;;1868193;75;21097;-73
2021/03/20 12:03:26;;;;;;;8.08;5.45;;;9.10;93.80;;;;;;1874218;75;21097;-72
2021/03/20 12:06:15;;;;;;;8.73;5.22;;;9.40;93.50;;;;;;1875633;75;21168;-72
2021/03/20 12:08:44;;;;;;;9.08;5.67;;;9.70;92.70;;;;;;1856794;75;21180;-72
2021/03/20 12:11:20;;;;;;;8.03;4.95;;;9.70;92.10;;;;;;1870243;75;21061;-72
2021/03/20 12:13:51;;;;;;;10.08;5.75;;;9.60;92.10;;;;;;1872866;75;21033;-72
2021/03/20 12:16:39;;;;;;;8.45;5.15;;;9.60;92.30;;;;;;1871964;75;21092;-72
2021/03/20 12:19:15;;;;;;;7.87;4.83;;;9.80;93.00;;;;;;1873525;75;21029;-71
2021/03/20 12:22:04;;;;;;;7.25;4.85;;;9.90;92.50;;;;;;1871759;75;21011;-71
2021/03/20 12:24:46;;;;;;;7.00;4.83;;;10.00;92.60;;;;;;1872540;75;21014;-70
2021/03/20 12:27:35;;;;;;;7.12;5.15;;;9.90;92.70;;;;;;1880169;75;21027;-71
2021/03/20 12:30:11;;;;;;;8.25;4.78;;;9.80;92.80;;;;;;1877175;75;21030;-71
2021/03/20 12:32:44;;;;;;;7.95;4.85;;;9.60;93.20;;;;;;1867848;75;21085;-71
2021/03/20 12:35:24;;;;;;;7.70;4.60;;;9.60;93.50;;;;;;1873338;75;21035;-70
2021/03/20 12:38:12;;;;;;;9.65;4.37;;;9.80;93.80;;;;;;1874979;75;21131;-71
2021/03/20 12:40:42;;;;;;;5.62;4.42;;;9.80;93.80;;;;;;1852237;75;21100;-73
2021/03/20 12:43:21;;;;;;;8.50;4.85;;;9.90;94.10;;;;;;1858056;75;21178;-72
2021/03/20 12:45:49;;;;;;;6.45;4.65;;;9.90;93.90;;;;;;1871094;75;21187;-72
2021/03/20 12:48:18;;;;;;;7.03;5.08;;;9.80;94.30;;;;;;1871170;75;21175;-72
2021/03/20 12:50:46;;;;;;;9.28;5.47;;;9.70;94.10;;;;;;1870672;75;21280;-72
2021/03/20 12:53:14;;;;;;;9.10;5.15;;;9.70;94.20;;;;;;1865787;75;21066;-72
2021/03/20 12:55:42;;;;;;;6.78;4.65;;;9.70;94.30;;;;;;1868650;75;21555;-72
2021/03/20 12:58:09;;;;;;;8.33;4.83;;;9.70;94.30;;;;;;1872186;75;21214;-72
2021/03/20 13:00:37;;;;;;;7.53;5.17;;;9.80;93.90;;;;;;1870001;75;21078;-73
2021/03/20 13:03:06;;;;;;;6.45;4.85;;;9.80;94.50;;;;;;1870985;75;21231;-72
2021/03/20 13:05:39;;;;;;;7.00;5.15;;;9.70;93.90;;;;;;1872594;75;21191;-72
2021/03/20 13:08:08;;;;;;;10.72;5.00;;;9.50;93.90;;;;;;1875177;75;21627;-72
2021/03/20 13:10:36;;;;;;;7.35;4.75;;;9.40;94.60;;;;;;1871233;75;21101;-74
2021/03/20 13:13:04;;;;;;;7.35;4.42;;;9.40;95.00;;;;;;1871626;75;21551;-73
2021/03/20 13:15:32;;;;;;;9.13;4.45;;;9.40;95.20;;;;;;1872115;75;21081;-72
2021/03/20 13:17:59;;;;;;;8.53;4.70;;;9.30;94.90;;;;;;1871145;75;21122;-72
2021/03/20 13:20:27;;;;;;;10.18;4.87;;;9.20;95.10;;;;;;1872507;75;21121;-73
2021/03/20 13:22:55;;;;;;;8.03;5.20;;;9.30;95.40;;;;;;1871582;75;21054;-72
2021/03/20 13:25:25;;;;;;;7.30;4.90;;;9.30;95.70;;;;;;1869868;75;21159;-72
2021/03/20 13:27:54;;;;;;;7.97;4.97;;;9.40;95.60;;;;;;1868995;75;21250;-72
2021/03/20 13:30:27;;;;;;;7.33;4.72;;;9.40;96.00;;;;;;1874531;75;21077;-72
2021/03/20 13:32:56;;;;;;;7.92;5.33;;;9.50;95.90;;;;;;1871525;75;21202;-72
2021/03/20 13:35:26;;;;;;;8.88;5.15;;;9.60;96.00;;;;;;1870903;75;21131;-72
2021/03/20 13:37:54;;;;;;;8.58;4.83;;;9.50;95.60;;;;;;1869928;75;21117;-72
2021/03/20 13:40:25;;;;;;;7.47;5.15;;;9.50;95.80;;;;;;1872378;75;21575;-73
2021/03/20 13:42:53;;;;;;;6.53;5.00;;;9.60;96.10;;;;;;1872333;75;21260;-72